sensor_id;sensor_type;location;lat;lon;timestamp;temperature;humidity
74384;DHT22;62824;52.994;-3.936;2023-06-14T00:00:51;19.70;14.80
74384;DHT22;62824;52.994;-3.936;2023-06-14T00:03:18;19.70;14.90
74384;DHT22;62824;52.994;-3.936;2023-06-14T00:05:45;19.70;14.90
74384;DHT22;62824;52.994;-3.936;2023-06-14T00:08:12;19.70;15.10
74384;DHT22;62824;52.994;-3.936;2023-06-14T00:10:38;19.60;15.20
74384;DHT22;62824;52.994;-3.936;2023-06-14T00:13:06;19.60;15.20
74384;DHT22;62824;52.994;-3.936;2023-06-14T00:15:33;19.50;15.30
74384;DHT22;62824;52.994;-3.936;2023-06-14T00:17:59;19.50;15.30
74384;DHT22;62824;52.994;-3.936;2023-06-14T00:20:30;19.50;15.40
74384;DHT22;62824;52.994;-3.936;2023-06-14T00:23:02;19.50;15.30
74384;DHT22;62824;52.994;-3.936;2023-06-14T00:25:28;19.40;15.10
74384;DHT22;62824;52.994;-3.936;2023-06-14T00:27:57;19.40;15.50
74384;DHT22;62824;52.994;-3.936;2023-06-14T00:30:23;19.30;15.60
74384;DHT22;62824;52.994;-3.936;2023-06-14T00:32:49;19.30;15.90
74384;DHT22;62824;52.994;-3.936;2023-06-14T00:35:15;19.30;15.80
74384;DHT22;62824;52.994;-3.936;2023-06-14T00:37:41;19.20;15.70
74384;DHT22;62824;52.994;-3.936;2023-06-14T00:40:07;19.20;15.30
74384;DHT22;62824;52.994;-3.936;2023-06-14T00:42:33;19.30;12.70
74384;DHT22;62824;52.994;-3.936;2023-06-14T00:45:00;19.40;13.90
74384;DHT22;62824;52.994;-3.936;2023-06-14T00:47:26;19.30;13.90
74384;DHT22;62824;52.994;-3.936;2023-06-14T00:49:53;19.30;12.10
74384;DHT22;62824;52.994;-3.936;2023-06-14T00:52:19;19.40;12.10
74384;DHT22;62824;52.994;-3.936;2023-06-14T00:54:46;19.50;12.80
74384;DHT22;62824;52.994;-3.936;2023-06-14T00:57:12;19.50;12.90
74384;DHT22;62824;52.994;-3.936;2023-06-14T00:59:48;19.50;13.60
74384;DHT22;62824;52.994;-3.936;2023-06-14T01:02:14;19.40;13.80
74384;DHT22;62824;52.994;-3.936;2023-06-14T01:04:47;19.40;12.70
74384;DHT22;62824;52.994;-3.936;2023-06-14T01:07:58;19.40;14.30
74384;DHT22;62824;52.994;-3.936;2023-06-14T01:10:31;19.40;13.50
74384;DHT22;62824;52.994;-3.936;2023-06-14T01:15:55;19.30;11.00
74384;DHT22;62824;52.994;-3.936;2023-06-14T01:18:22;19.30;10.60
74384;DHT22;62824;52.994;-3.936;2023-06-14T01:20:49;19.30;11.00
74384;DHT22;62824;52.994;-3.936;2023-06-14T01:23:19;19.30;11.00
74384;DHT22;62824;52.994;-3.936;2023-06-14T01:25:46;19.30;10.40
74384;DHT22;62824;52.994;-3.936;2023-06-14T01:28:14;19.40;10.50
74384;DHT22;62824;52.994;-3.936;2023-06-14T01:30:44;19.50;9.90
74384;DHT22;62824;52.994;-3.936;2023-06-14T01:33:19;19.40;11.20
74384;DHT22;62824;52.994;-3.936;2023-06-14T01:35:47;19.30;11.00
74384;DHT22;62824;52.994;-3.936;2023-06-14T01:38:14;19.30;10.70
74384;DHT22;62824;52.994;-3.936;2023-06-14T01:40:44;19.30;12.10
74384;DHT22;62824;52.994;-3.936;2023-06-14T01:43:14;19.20;12.10
74384;DHT22;62824;52.994;-3.936;2023-06-14T01:45:42;19.10;13.00
74384;DHT22;62824;52.994;-3.936;2023-06-14T01:48:09;18.90;13.60
74384;DHT22;62824;52.994;-3.936;2023-06-14T01:50:35;18.60;13.80
74384;DHT22;62824;52.994;-3.936;2023-06-14T01:53:01;18.50;14.40
74384;DHT22;62824;52.994;-3.936;2023-06-14T01:55:26;18.40;14.60
74384;DHT22;62824;52.994;-3.936;2023-06-14T01:57:53;18.50;14.50
74384;DHT22;62824;52.994;-3.936;2023-06-14T02:00:20;18.50;14.20
74384;DHT22;62824;52.994;-3.936;2023-06-14T02:02:47;18.60;13.90
74384;DHT22;62824;52.994;-3.936;2023-06-14T02:05:12;18.60;14.20
74384;DHT22;62824;52.994;-3.936;2023-06-14T02:07:38;18.30;14.20
74384;DHT22;62824;52.994;-3.936;2023-06-14T02:10:04;18.20;14.20
74384;DHT22;62824;52.994;-3.936;2023-06-14T02:12:30;18.10;14.20
74384;DHT22;62824;52.994;-3.936;2023-06-14T02:14:56;18.00;14.60
74384;DHT22;62824;52.994;-3.936;2023-06-14T02:17:22;17.90;15.10
74384;DHT22;62824;52.994;-3.936;2023-06-14T02:19:48;17.80;15.50
74384;DHT22;62824;52.994;-3.936;2023-06-14T02:22:15;17.80;15.10
74384;DHT22;62824;52.994;-3.936;2023-06-14T02:24:41;17.80;14.80
74384;DHT22;62824;52.994;-3.936;2023-06-14T02:27:07;17.90;14.90
74384;DHT22;62824;52.994;-3.936;2023-06-14T02:29:36;17.80;14.80
74384;DHT22;62824;52.994;-3.936;2023-06-14T02:32:02;17.70;15.30
74384;DHT22;62824;52.994;-3.936;2023-06-14T02:34:28;17.50;14.80
74384;DHT22;62824;52.994;-3.936;2023-06-14T02:36:53;17.50;14.20
74384;DHT22;62824;52.994;-3.936;2023-06-14T02:39:20;17.60;13.30
74384;DHT22;62824;52.994;-3.936;2023-06-14T02:41:49;17.60;14.00
74384;DHT22;62824;52.994;-3.936;2023-06-14T02:44:17;17.60;13.10
74384;DHT22;62824;52.994;-3.936;2023-06-14T02:46:43;17.60;12.20
74384;DHT22;62824;52.994;-3.936;2023-06-14T02:49:11;17.60;12.10
74384;DHT22;62824;52.994;-3.936;2023-06-14T02:51:36;17.60;11.60
74384;DHT22;62824;52.994;-3.936;2023-06-14T02:54:02;17.60;11.60
74384;DHT22;62824;52.994;-3.936;2023-06-14T02:56:28;17.60;10.80
74384;DHT22;62824;52.994;-3.936;2023-06-14T02:58:55;17.80;9.80
74384;DHT22;62824;52.994;-3.936;2023-06-14T03:01:20;17.70;10.00
74384;DHT22;62824;52.994;-3.936;2023-06-14T03:03:47;17.60;10.10
74384;DHT22;62824;52.994;-3.936;2023-06-14T03:06:13;17.60;10.40
74384;DHT22;62824;52.994;-3.936;2023-06-14T03:08:40;17.60;9.50
74384;DHT22;62824;52.994;-3.936;2023-06-14T03:11:07;17.60;9.40
74384;DHT22;62824;52.994;-3.936;2023-06-14T03:13:34;17.60;8.90
74384;DHT22;62824;52.994;-3.936;2023-06-14T03:16:00;17.70;8.40
74384;DHT22;62824;52.994;-3.936;2023-06-14T03:18:30;17.70;8.30
74384;DHT22;62824;52.994;-3.936;2023-06-14T03:21:02;17.60;8.20
74384;DHT22;62824;52.994;-3.936;2023-06-14T03:23:28;17.50;9.10
74384;DHT22;62824;52.994;-3.936;2023-06-14T03:25:53;17.40;8.90
74384;DHT22;62824;52.994;-3.936;2023-06-14T03:28:19;17.30;8.50
74384;DHT22;62824;52.994;-3.936;2023-06-14T03:30:45;17.10;10.40
74384;DHT22;62824;52.994;-3.936;2023-06-14T03:33:11;16.90;10.00
74384;DHT22;62824;52.994;-3.936;2023-06-14T03:35:37;16.90;10.30
74384;DHT22;62824;52.994;-3.936;2023-06-14T03:38:02;16.70;10.40
74384;DHT22;62824;52.994;-3.936;2023-06-14T03:40:29;16.70;10.40
74384;DHT22;62824;52.994;-3.936;2023-06-14T03:42:55;16.60;10.80
74384;DHT22;62824;52.994;-3.936;2023-06-14T03:45:21;16.60;10.40
74384;DHT22;62824;52.994;-3.936;2023-06-14T03:47:47;16.70;10.10
74384;DHT22;62824;52.994;-3.936;2023-06-14T03:50:13;16.60;10.30
74384;DHT22;62824;52.994;-3.936;2023-06-14T03:52:39;16.60;10.00
74384;DHT22;62824;52.994;-3.936;2023-06-14T03:55:06;16.50;10.80
74384;DHT22;62824;52.994;-3.936;2023-06-14T03:57:31;16.30;11.80
74384;DHT22;62824;52.994;-3.936;2023-06-14T03:59:57;16.20;11.80
74384;DHT22;62824;52.994;-3.936;2023-06-14T04:02:23;16.10;11.80
74384;DHT22;62824;52.994;-3.936;2023-06-14T04:04:49;16.10;12.10
74384;DHT22;62824;52.994;-3.936;2023-06-14T04:07:15;16.10;11.60
74384;DHT22;62824;52.994;-3.936;2023-06-14T04:09:45;16.10;11.80
74384;DHT22;62824;52.994;-3.936;2023-06-14T04:12:11;15.90;12.10
74384;DHT22;62824;52.994;-3.936;2023-06-14T04:14:40;15.90;11.90
74384;DHT22;62824;52.994;-3.936;2023-06-14T04:17:06;15.90;10.90
74384;DHT22;62824;52.994;-3.936;2023-06-14T04:19:32;16.10;8.90
74384;DHT22;62824;52.994;-3.936;2023-06-14T04:21:59;16.20;6.60
74384;DHT22;62824;52.994;-3.936;2023-06-14T04:24:28;16.20;7.40
74384;DHT22;62824;52.994;-3.936;2023-06-14T04:26:58;16.10;7.00
74384;DHT22;62824;52.994;-3.936;2023-06-14T04:29:24;16.20;4.30
74384;DHT22;62824;52.994;-3.936;2023-06-14T04:31:53;16.30;3.00
74384;DHT22;62824;52.994;-3.936;2023-06-14T04:34:20;16.40;1.90
74384;DHT22;62824;52.994;-3.936;2023-06-14T04:36:47;16.50;1.70
74384;DHT22;62824;52.994;-3.936;2023-06-14T04:39:21;16.50;1.40
74384;DHT22;62824;52.994;-3.936;2023-06-14T04:41:48;16.50;1.60
74384;DHT22;62824;52.994;-3.936;2023-06-14T04:44:19;16.30;2.60
74384;DHT22;62824;52.994;-3.936;2023-06-14T04:46:48;16.20;3.70
74384;DHT22;62824;52.994;-3.936;2023-06-14T04:49:17;16.10;4.40
74384;DHT22;62824;52.994;-3.936;2023-06-14T04:51:44;16.10;4.20
74384;DHT22;62824;52.994;-3.936;2023-06-14T04:54:11;16.10;4.90
74384;DHT22;62824;52.994;-3.936;2023-06-14T04:56:43;16.00;5.40
74384;DHT22;62824;52.994;-3.936;2023-06-14T04:59:09;15.80;8.00
74384;DHT22;62824;52.994;-3.936;2023-06-14T05:01:37;15.50;10.50
74384;DHT22;62824;52.994;-3.936;2023-06-14T05:04:03;15.40;9.30
74384;DHT22;62824;52.994;-3.936;2023-06-14T05:06:30;15.50;8.90
74384;DHT22;62824;52.994;-3.936;2023-06-14T05:08:56;15.70;8.80
74384;DHT22;62824;52.994;-3.936;2023-06-14T05:11:22;15.80;8.80
74384;DHT22;62824;52.994;-3.936;2023-06-14T05:13:50;15.90;8.90
74384;DHT22;62824;52.994;-3.936;2023-06-14T05:16:16;16.00;9.10
74384;DHT22;62824;52.994;-3.936;2023-06-14T05:18:45;16.00;8.70
74384;DHT22;62824;52.994;-3.936;2023-06-14T05:21:11;16.00;8.30
74384;DHT22;62824;52.994;-3.936;2023-06-14T05:23:37;16.10;10.10
74384;DHT22;62824;52.994;-3.936;2023-06-14T05:26:02;16.10;10.10
74384;DHT22;62824;52.994;-3.936;2023-06-14T05:28:30;16.20;10.80
74384;DHT22;62824;52.994;-3.936;2023-06-14T05:30:56;16.20;11.20
74384;DHT22;62824;52.994;-3.936;2023-06-14T05:33:23;16.20;10.90
74384;DHT22;62824;52.994;-3.936;2023-06-14T05:35:49;16.30;10.90
74384;DHT22;62824;52.994;-3.936;2023-06-14T05:38:15;16.30;10.70
74384;DHT22;62824;52.994;-3.936;2023-06-14T05:40:41;16.40;10.90
74384;DHT22;62824;52.994;-3.936;2023-06-14T05:43:07;16.40;10.00
74384;DHT22;62824;52.994;-3.936;2023-06-14T05:45:32;16.20;10.20
74384;DHT22;62824;52.994;-3.936;2023-06-14T05:47:58;16.00;11.40
74384;DHT22;62824;52.994;-3.936;2023-06-14T05:50:24;16.00;11.30
74384;DHT22;62824;52.994;-3.936;2023-06-14T05:52:50;16.10;12.50
74384;DHT22;62824;52.994;-3.936;2023-06-14T05:55:17;16.20;10.40
74384;DHT22;62824;52.994;-3.936;2023-06-14T05:57:42;16.10;12.60
74384;DHT22;62824;52.994;-3.936;2023-06-14T06:00:09;16.10;11.90
74384;DHT22;62824;52.994;-3.936;2023-06-14T06:02:36;16.20;12.10
74384;DHT22;62824;52.994;-3.936;2023-06-14T06:05:02;16.30;12.10
74384;DHT22;62824;52.994;-3.936;2023-06-14T06:07:28;16.30;13.30
74384;DHT22;62824;52.994;-3.936;2023-06-14T06:09:55;16.40;12.00
74384;DHT22;62824;52.994;-3.936;2023-06-14T06:12:21;16.30;13.30
74384;DHT22;62824;52.994;-3.936;2023-06-14T06:14:47;16.10;15.00
74384;DHT22;62824;52.994;-3.936;2023-06-14T06:17:12;16.10;15.50
74384;DHT22;62824;52.994;-3.936;2023-06-14T06:19:38;16.20;15.20
74384;DHT22;62824;52.994;-3.936;2023-06-14T06:22:04;16.30;14.20
74384;DHT22;62824;52.994;-3.936;2023-06-14T06:24:32;16.50;13.00
74384;DHT22;62824;52.994;-3.936;2023-06-14T06:26:57;16.60;11.90
74384;DHT22;62824;52.994;-3.936;2023-06-14T06:29:23;16.70;12.20
74384;DHT22;62824;52.994;-3.936;2023-06-14T06:31:49;16.80;12.90
74384;DHT22;62824;52.994;-3.936;2023-06-14T06:34:15;16.80;12.40
74384;DHT22;62824;52.994;-3.936;2023-06-14T06:36:40;17.30;11.50
74384;DHT22;62824;52.994;-3.936;2023-06-14T06:39:07;17.80;10.90
74384;DHT22;62824;52.994;-3.936;2023-06-14T06:41:38;18.10;10.40
74384;DHT22;62824;52.994;-3.936;2023-06-14T06:44:08;18.10;9.30
74384;DHT22;62824;52.994;-3.936;2023-06-14T06:46:36;18.00;9.80
74384;DHT22;62824;52.994;-3.936;2023-06-14T06:49:06;18.10;9.90
74384;DHT22;62824;52.994;-3.936;2023-06-14T06:51:32;18.10;9.40
74384;DHT22;62824;52.994;-3.936;2023-06-14T06:53:58;18.10;9.20
74384;DHT22;62824;52.994;-3.936;2023-06-14T06:56:24;18.20;9.30
74384;DHT22;62824;52.994;-3.936;2023-06-14T06:58:52;18.20;11.20
74384;DHT22;62824;52.994;-3.936;2023-06-14T07:01:18;18.20;12.20
74384;DHT22;62824;52.994;-3.936;2023-06-14T07:03:45;18.00;12.10
74384;DHT22;62824;52.994;-3.936;2023-06-14T07:06:12;18.20;11.80
74384;DHT22;62824;52.994;-3.936;2023-06-14T07:08:38;18.30;11.70
74384;DHT22;62824;52.994;-3.936;2023-06-14T07:11:05;18.40;12.10
74384;DHT22;62824;52.994;-3.936;2023-06-14T07:13:31;18.40;12.30
74384;DHT22;62824;52.994;-3.936;2023-06-14T07:16:00;18.50;12.30
74384;DHT22;62824;52.994;-3.936;2023-06-14T07:18:27;18.50;12.40
74384;DHT22;62824;52.994;-3.936;2023-06-14T07:20:53;18.60;12.00
74384;DHT22;62824;52.994;-3.936;2023-06-14T07:23:20;18.60;11.90
74384;DHT22;62824;52.994;-3.936;2023-06-14T07:25:46;18.60;11.70
74384;DHT22;62824;52.994;-3.936;2023-06-14T07:28:14;18.80;11.70
74384;DHT22;62824;52.994;-3.936;2023-06-14T07:30:40;18.80;11.70
74384;DHT22;62824;52.994;-3.936;2023-06-14T07:33:05;19.00;11.80
74384;DHT22;62824;52.994;-3.936;2023-06-14T07:35:31;19.20;11.50
74384;DHT22;62824;52.994;-3.936;2023-06-14T07:37:57;19.50;11.50
74384;DHT22;62824;52.994;-3.936;2023-06-14T07:40:23;19.60;10.90
74384;DHT22;62824;52.994;-3.936;2023-06-14T07:42:48;19.80;11.10
74384;DHT22;62824;52.994;-3.936;2023-06-14T07:45:15;20.10;11.80
74384;DHT22;62824;52.994;-3.936;2023-06-14T07:47:41;20.30;11.60
74384;DHT22;62824;52.994;-3.936;2023-06-14T07:50:07;20.30;11.20
74384;DHT22;62824;52.994;-3.936;2023-06-14T07:52:33;20.30;11.60
74384;DHT22;62824;52.994;-3.936;2023-06-14T07:54:59;20.40;11.10
74384;DHT22;62824;52.994;-3.936;2023-06-14T07:57:25;20.60;11.20
74384;DHT22;62824;52.994;-3.936;2023-06-14T07:59:51;20.70;11.00
74384;DHT22;62824;52.994;-3.936;2023-06-14T08:02:18;20.80;11.00
74384;DHT22;62824;52.994;-3.936;2023-06-14T08:04:44;20.90;10.30
74384;DHT22;62824;52.994;-3.936;2023-06-14T08:07:09;20.90;9.50
74384;DHT22;62824;52.994;-3.936;2023-06-14T08:09:36;20.80;9.70
74384;DHT22;62824;52.994;-3.936;2023-06-14T08:12:06;21.00;10.30
74384;DHT22;62824;52.994;-3.936;2023-06-14T08:14:39;20.90;9.80
74384;DHT22;62824;52.994;-3.936;2023-06-14T08:17:05;21.10;10.10
74384;DHT22;62824;52.994;-3.936;2023-06-14T08:19:31;21.20;9.60
74384;DHT22;62824;52.994;-3.936;2023-06-14T08:21:57;21.40;8.60
74384;DHT22;62824;52.994;-3.936;2023-06-14T08:24:23;21.50;8.40
74384;DHT22;62824;52.994;-3.936;2023-06-14T08:26:55;21.40;8.80
74384;DHT22;62824;52.994;-3.936;2023-06-14T08:29:22;21.80;7.90
74384;DHT22;62824;52.994;-3.936;2023-06-14T08:31:48;21.80;7.40
74384;DHT22;62824;52.994;-3.936;2023-06-14T08:34:14;21.80;7.70
74384;DHT22;62824;52.994;-3.936;2023-06-14T08:36:39;21.90;6.80
74384;DHT22;62824;52.994;-3.936;2023-06-14T08:39:06;21.60;7.00
74384;DHT22;62824;52.994;-3.936;2023-06-14T08:41:34;21.50;6.40
74384;DHT22;62824;52.994;-3.936;2023-06-14T08:44:01;21.40;7.30
74384;DHT22;62824;52.994;-3.936;2023-06-14T08:46:26;21.60;8.30
74384;DHT22;62824;52.994;-3.936;2023-06-14T08:48:55;21.80;6.40
74384;DHT22;62824;52.994;-3.936;2023-06-14T08:51:25;21.90;6.90
74384;DHT22;62824;52.994;-3.936;2023-06-14T08:53:54;21.70;6.90
74384;DHT22;62824;52.994;-3.936;2023-06-14T08:56:27;21.60;7.40
74384;DHT22;62824;52.994;-3.936;2023-06-14T08:58:57;21.70;7.40
74384;DHT22;62824;52.994;-3.936;2023-06-14T09:01:23;22.10;7.10
74384;DHT22;62824;52.994;-3.936;2023-06-14T09:03:50;22.40;6.90
74384;DHT22;62824;52.994;-3.936;2023-06-14T09:06:16;22.10;5.00
74384;DHT22;62824;52.994;-3.936;2023-06-14T09:08:45;21.90;5.40
74384;DHT22;62824;52.994;-3.936;2023-06-14T09:11:16;22.10;6.40
74384;DHT22;62824;52.994;-3.936;2023-06-14T09:13:45;22.30;5.50
74384;DHT22;62824;52.994;-3.936;2023-06-14T09:16:11;22.20;6.00
74384;DHT22;62824;52.994;-3.936;2023-06-14T09:18:42;22.30;5.70
74384;DHT22;62824;52.994;-3.936;2023-06-14T09:21:14;22.40;5.10
74384;DHT22;62824;52.994;-3.936;2023-06-14T09:23:46;22.30;5.90
74384;DHT22;62824;52.994;-3.936;2023-06-14T09:28:42;22.50;6.30
74384;DHT22;62824;52.994;-3.936;2023-06-14T09:31:11;22.50;6.60
74384;DHT22;62824;52.994;-3.936;2023-06-14T09:33:37;22.50;6.40
74384;DHT22;62824;52.994;-3.936;2023-06-14T09:36:10;22.50;7.00
74384;DHT22;62824;52.994;-3.936;2023-06-14T09:38:36;22.80;6.40
74384;DHT22;62824;52.994;-3.936;2023-06-14T09:41:03;22.90;6.00
74384;DHT22;62824;52.994;-3.936;2023-06-14T09:43:29;23.20;5.00
74384;DHT22;62824;52.994;-3.936;2023-06-14T09:45:55;23.30;5.50
74384;DHT22;62824;52.994;-3.936;2023-06-14T09:48:21;23.40;5.10
74384;DHT22;62824;52.994;-3.936;2023-06-14T09:50:49;23.50;4.40
74384;DHT22;62824;52.994;-3.936;2023-06-14T09:53:15;23.60;5.20
74384;DHT22;62824;52.994;-3.936;2023-06-14T09:55:42;23.40;5.30
74384;DHT22;62824;52.994;-3.936;2023-06-14T09:58:10;23.40;2.40
74384;DHT22;62824;52.994;-3.936;2023-06-14T10:00:39;23.30;3.20
74384;DHT22;62824;52.994;-3.936;2023-06-14T10:03:14;23.30;4.10
74384;DHT22;62824;52.994;-3.936;2023-06-14T10:05:45;23.70;3.60
74384;DHT22;62824;52.994;-3.936;2023-06-14T10:08:14;24.00;2.70
74384;DHT22;62824;52.994;-3.936;2023-06-14T10:10:44;24.30;3.60
74384;DHT22;62824;52.994;-3.936;2023-06-14T10:13:11;24.00;2.40
74384;DHT22;62824;52.994;-3.936;2023-06-14T10:16:00;23.80;2.90
74384;DHT22;62824;52.994;-3.936;2023-06-14T10:18:36;23.80;3.60
74384;DHT22;62824;52.994;-3.936;2023-06-14T10:21:21;23.90;4.20
74384;DHT22;62824;52.994;-3.936;2023-06-14T10:23:51;24.20;4.00
74384;DHT22;62824;52.994;-3.936;2023-06-14T10:26:20;24.20;2.40
74384;DHT22;62824;52.994;-3.936;2023-06-14T10:29:00;24.30;3.10
74384;DHT22;62824;52.994;-3.936;2023-06-14T10:31:43;24.60;3.90
74384;DHT22;62824;52.994;-3.936;2023-06-14T10:34:10;24.70;3.50
74384;DHT22;62824;52.994;-3.936;2023-06-14T10:36:37;24.50;2.20
74384;DHT22;62824;52.994;-3.936;2023-06-14T10:39:16;24.70;3.20
74384;DHT22;62824;52.994;-3.936;2023-06-14T10:41:52;24.80;3.20
74384;DHT22;62824;52.994;-3.936;2023-06-14T10:46:49;25.20;3.40
74384;DHT22;62824;52.994;-3.936;2023-06-14T10:49:18;25.40;2.40
74384;DHT22;62824;52.994;-3.936;2023-06-14T10:51:45;25.10;1.00
74384;DHT22;62824;52.994;-3.936;2023-06-14T10:54:15;24.90;2.30
74384;DHT22;62824;52.994;-3.936;2023-06-14T10:56:51;25.10;2.60
74384;DHT22;62824;52.994;-3.936;2023-06-14T10:59:18;25.20;2.50
74384;DHT22;62824;52.994;-3.936;2023-06-14T11:04:52;25.70;1.20
74384;DHT22;62824;52.994;-3.936;2023-06-14T11:10:19;26.10;1.00
74384;DHT22;62824;52.994;-3.936;2023-06-14T11:12:48;26.30;1.00
74384;DHT22;62824;52.994;-3.936;2023-06-14T11:15:14;26.40;1.00
74384;DHT22;62824;52.994;-3.936;2023-06-14T11:17:52;26.20;1.00
74384;DHT22;62824;52.994;-3.936;2023-06-14T11:20:19;26.40;1.00
74384;DHT22;62824;52.994;-3.936;2023-06-14T11:22:47;26.50;1.00
74384;DHT22;62824;52.994;-3.936;2023-06-14T11:25:12;26.40;1.00
74384;DHT22;62824;52.994;-3.936;2023-06-14T11:27:38;26.70;1.00
74384;DHT22;62824;52.994;-3.936;2023-06-14T11:30:07;26.70;1.00
74384;DHT22;62824;52.994;-3.936;2023-06-14T11:32:33;26.80;1.00
74384;DHT22;62824;52.994;-3.936;2023-06-14T11:34:59;26.80;1.00
74384;DHT22;62824;52.994;-3.936;2023-06-14T11:37:26;26.50;1.00
74384;DHT22;62824;52.994;-3.936;2023-06-14T11:39:57;26.50;1.00
74384;DHT22;62824;52.994;-3.936;2023-06-14T11:42:24;26.50;1.00
74384;DHT22;62824;52.994;-3.936;2023-06-14T11:44:50;26.60;1.00
74384;DHT22;62824;52.994;-3.936;2023-06-14T11:47:16;26.60;1.00
74384;DHT22;62824;52.994;-3.936;2023-06-14T11:49:41;27.10;1.00
74384;DHT22;62824;52.994;-3.936;2023-06-14T11:52:08;26.80;1.00
74384;DHT22;62824;52.994;-3.936;2023-06-14T11:54:33;26.50;1.00
74384;DHT22;62824;52.994;-3.936;2023-06-14T11:56:59;26.30;1.00
74384;DHT22;62824;52.994;-3.936;2023-06-14T11:59:25;25.90;1.00
74384;DHT22;62824;52.994;-3.936;2023-06-14T12:01:53;26.30;1.00
74384;DHT22;62824;52.994;-3.936;2023-06-14T12:04:29;26.50;1.00
74384;DHT22;62824;52.994;-3.936;2023-06-14T12:06:56;26.60;1.00
74384;DHT22;62824;52.994;-3.936;2023-06-14T12:09:23;26.80;1.00
74384;DHT22;62824;52.994;-3.936;2023-06-14T12:12:00;27.40;1.00
74384;DHT22;62824;52.994;-3.936;2023-06-14T12:14:30;28.30;1.00
74384;DHT22;62824;52.994;-3.936;2023-06-14T12:17:06;28.30;1.00
74384;DHT22;62824;52.994;-3.936;2023-06-14T12:19:33;28.00;1.00
74384;DHT22;62824;52.994;-3.936;2023-06-14T12:22:04;27.70;1.00
74384;DHT22;62824;52.994;-3.936;2023-06-14T12:24:31;27.60;1.00
74384;DHT22;62824;52.994;-3.936;2023-06-14T12:26:58;27.40;1.00
74384;DHT22;62824;52.994;-3.936;2023-06-14T12:29:29;27.40;1.00
74384;DHT22;62824;52.994;-3.936;2023-06-14T12:31:55;27.60;1.00
74384;DHT22;62824;52.994;-3.936;2023-06-14T12:34:25;27.80;1.00
74384;DHT22;62824;52.994;-3.936;2023-06-14T12:36:55;27.50;1.00
74384;DHT22;62824;52.994;-3.936;2023-06-14T12:39:21;28.10;1.00
74384;DHT22;62824;52.994;-3.936;2023-06-14T12:41:48;28.10;1.00
74384;DHT22;62824;52.994;-3.936;2023-06-14T12:44:14;28.40;1.00
74384;DHT22;62824;52.994;-3.936;2023-06-14T12:46:43;28.30;1.00
74384;DHT22;62824;52.994;-3.936;2023-06-14T12:49:10;28.20;1.00
74384;DHT22;62824;52.994;-3.936;2023-06-14T12:51:37;28.80;1.00
74384;DHT22;62824;52.994;-3.936;2023-06-14T12:54:06;29.00;1.00
74384;DHT22;62824;52.994;-3.936;2023-06-14T12:56:33;28.90;1.00
74384;DHT22;62824;52.994;-3.936;2023-06-14T12:58:59;28.30;1.00
74384;DHT22;62824;52.994;-3.936;2023-06-14T13:01:25;28.00;1.00
74384;DHT22;62824;52.994;-3.936;2023-06-14T13:03:51;28.20;1.00
74384;DHT22;62824;52.994;-3.936;2023-06-14T13:06:21;28.60;1.00
74384;DHT22;62824;52.994;-3.936;2023-06-14T13:08:50;28.90;1.00
74384;DHT22;62824;52.994;-3.936;2023-06-14T13:11:16;29.10;1.00
74384;DHT22;62824;52.994;-3.936;2023-06-14T13:13:42;29.00;1.00
74384;DHT22;62824;52.994;-3.936;2023-06-14T13:16:08;29.00;1.00
74384;DHT22;62824;52.994;-3.936;2023-06-14T13:18:33;28.60;1.00
74384;DHT22;62824;52.994;-3.936;2023-06-14T13:20:59;28.20;1.00
74384;DHT22;62824;52.994;-3.936;2023-06-14T13:23:26;28.40;1.00
74384;DHT22;62824;52.994;-3.936;2023-06-14T13:25:52;28.70;1.00
74384;DHT22;62824;52.994;-3.936;2023-06-14T13:28:18;29.10;1.00
74384;DHT22;62824;52.994;-3.936;2023-06-14T13:34:00;29.20;1.00
74384;DHT22;62824;52.994;-3.936;2023-06-14T13:36:26;29.50;1.00
74384;DHT22;62824;52.994;-3.936;2023-06-14T13:38:52;29.40;1.00
74384;DHT22;62824;52.994;-3.936;2023-06-14T13:41:18;29.30;1.00
74384;DHT22;62824;52.994;-3.936;2023-06-14T13:43:44;29.80;1.00
74384;DHT22;62824;52.994;-3.936;2023-06-14T13:46:09;29.30;1.00
74384;DHT22;62824;52.994;-3.936;2023-06-14T13:48:35;29.70;1.00
74384;DHT22;62824;52.994;-3.936;2023-06-14T13:51:01;29.70;1.00
74384;DHT22;62824;52.994;-3.936;2023-06-14T13:53:29;30.00;1.00
74384;DHT22;62824;52.994;-3.936;2023-06-14T13:55:55;30.40;1.00
74384;DHT22;62824;52.994;-3.936;2023-06-14T13:58:21;29.90;1.00
74384;DHT22;62824;52.994;-3.936;2023-06-14T14:00:48;30.00;1.00
74384;DHT22;62824;52.994;-3.936;2023-06-14T14:03:14;29.60;1.00
74384;DHT22;62824;52.994;-3.936;2023-06-14T14:05:40;30.00;1.00
74384;DHT22;62824;52.994;-3.936;2023-06-14T14:08:06;30.00;1.00
74384;DHT22;62824;52.994;-3.936;2023-06-14T14:10:31;30.20;1.00
74384;DHT22;62824;52.994;-3.936;2023-06-14T14:12:58;30.20;1.00
74384;DHT22;62824;52.994;-3.936;2023-06-14T14:15:25;30.10;1.00
74384;DHT22;62824;52.994;-3.936;2023-06-14T14:17:51;29.30;1.00
74384;DHT22;62824;52.994;-3.936;2023-06-14T14:20:17;29.20;1.00
74384;DHT22;62824;52.994;-3.936;2023-06-14T14:22:43;29.20;1.00
74384;DHT22;62824;52.994;-3.936;2023-06-14T14:25:09;29.60;1.00
74384;DHT22;62824;52.994;-3.936;2023-06-14T14:27:36;29.90;1.00
74384;DHT22;62824;52.994;-3.936;2023-06-14T14:30:04;30.00;1.00
74384;DHT22;62824;52.994;-3.936;2023-06-14T14:32:29;29.70;1.00
74384;DHT22;62824;52.994;-3.936;2023-06-14T14:34:55;29.70;1.00
74384;DHT22;62824;52.994;-3.936;2023-06-14T14:37:21;29.50;1.00
74384;DHT22;62824;52.994;-3.936;2023-06-14T14:39:47;29.60;1.00
74384;DHT22;62824;52.994;-3.936;2023-06-14T14:42:13;29.50;1.00
74384;DHT22;62824;52.994;-3.936;2023-06-14T14:44:39;29.20;1.00
74384;DHT22;62824;52.994;-3.936;2023-06-14T14:47:08;29.20;1.00
74384;DHT22;62824;52.994;-3.936;2023-06-14T14:49:33;29.30;1.00
74384;DHT22;62824;52.994;-3.936;2023-06-14T14:51:59;29.10;1.00
74384;DHT22;62824;52.994;-3.936;2023-06-14T14:54:25;28.90;1.00
74384;DHT22;62824;52.994;-3.936;2023-06-14T14:56:51;29.20;1.00
74384;DHT22;62824;52.994;-3.936;2023-06-14T14:59:17;29.20;1.00
74384;DHT22;62824;52.994;-3.936;2023-06-14T15:01:44;29.60;1.00
74384;DHT22;62824;52.994;-3.936;2023-06-14T15:04:11;29.60;1.00
74384;DHT22;62824;52.994;-3.936;2023-06-14T15:06:37;29.70;1.00
74384;DHT22;62824;52.994;-3.936;2023-06-14T15:09:05;29.60;1.00
74384;DHT22;62824;52.994;-3.936;2023-06-14T15:11:31;29.20;1.00
74384;DHT22;62824;52.994;-3.936;2023-06-14T15:13:57;29.10;1.00
74384;DHT22;62824;52.994;-3.936;2023-06-14T15:16:23;28.80;1.00
74384;DHT22;62824;52.994;-3.936;2023-06-14T15:18:49;29.00;1.00
74384;DHT22;62824;52.994;-3.936;2023-06-14T15:21:15;29.20;1.00
74384;DHT22;62824;52.994;-3.936;2023-06-14T15:23:41;29.90;1.00
74384;DHT22;62824;52.994;-3.936;2023-06-14T15:26:07;30.20;1.00
74384;DHT22;62824;52.994;-3.936;2023-06-14T15:28:32;30.00;1.00
74384;DHT22;62824;52.994;-3.936;2023-06-14T15:30:59;29.60;1.00
74384;DHT22;62824;52.994;-3.936;2023-06-14T15:33:25;29.50;1.00
74384;DHT22;62824;52.994;-3.936;2023-06-14T15:35:51;29.60;1.00
74384;DHT22;62824;52.994;-3.936;2023-06-14T15:38:20;29.50;1.00
74384;DHT22;62824;52.994;-3.936;2023-06-14T15:40:47;28.70;1.00
74384;DHT22;62824;52.994;-3.936;2023-06-14T15:43:13;29.10;1.00